Impacts TAF Board
For situational awareness. Not to be used for flight planning purposes.
IDs:

KMCO - Orlando Intl, FL, US

Issued at 1127 UTC 25 Jun 2019
Updated at 1130 UTC 25 Jun 2019
Potential Impact None Slight Moderate High
Time<<26/00Z 26/01Z 26/02Z 26/03Z 26/04Z 26/05Z 26/06Z 26/07Z 26/08Z 26/09Z 26/10Z 26/11Z 26/12Z>>
Type PRVL PRVL PRVL PRVL PRVL PRVL PRVL PRVL PRVL PRVL PRVL PRVL PRVL
VIS >6 >6 >6 >6 >6 >6 >6 >6 >6 >6 >6 >6 >6
CIG -- -- -- 250 250 250 250 250 250 250 250 250 250
Cover SCT SCT SCT BKN BKN BKN BKN BKN BKN BKN BKN BKN BKN
FltCat VFR VFR VFR VFR VFR VFR VFR VFR VFR VFR VFR VFR VFR
WX VCTS VCTS VCTS -- -- -- -- -- -- -- -- -- --
WDir 320 320 320 260 260 260 260 260 260 260 260 260 260
WSpd 9 9 9 4 4 4 4 4 4 4 4 4 4
WGst -- -- -- -- -- -- -- -- -- -- -- -- --
Raw TAF
KMCO 251127Z 2512/2618 27003KT P6SM FEW250
  FM251500 30008KT P6SM SCT040 SCT250
  FM252100 32009KT P6SM VCTS SCT050CB SCT250
  FM260300 26004KT P6SM SCT080 BKN250
  FM261700 05006KT P6SM SCT035 SCT250


METAR Board
Radar Display
Forecast Discussion
For situational awareness. Not to be used for flight planning purposes.